Latest Weather Observations for Hervey Bay

IDQ60801

Issued at 11:22 pm EST Wednesday 25 May 2022 (issued every 10 minutes, with the page automatically refreshed every 10 minutes)

About weather observations | Map of weather stations | Latest weather observations for QLD | Other Formats
Station Details ID: 040405 Name: HERVEY BAY AIRPORT Lat: -25.32 Lon: 152.88 Height: 12.98 m
Data from the previous 72 hours. | See also: Recent months at Hervey Bay
Date/Time
EST
Temp
°C
App
Temp
°C
Dew
Point
°C
Rel
Hum
%
Delta-T
°C
Wind Press
QNH
hPa
Press
MSL
hPa
Rain since
9am
mm
Dir  Spd
km/h
Gust
km/h
Spd
kts
Gust
kts
25/11:00pm 18.3 18.4 17.5 95 0.5 S 13 20 7 11 1016.9 1016.8 10.6
25/10:30pm 18.1 19.3 17.3 95 0.5 S 7 15 4 8 1017.3 1017.2 10.6
25/10:00pm 18.5 17.6 17.7 95 0.5 SSE 19 33 10 18 1017.5 1017.4 8.8
25/09:30pm 18.5 19.5 17.7 95 0.5 SSW 9 15 5 8 1017.3 1017.2 4.8
25/09:00pm 18.7 20.1 17.7 94 0.6 SW 7 11 4 6 1017.5 1017.4 4.8
25/08:30pm 18.7 19.7 17.7 94 0.6 S 9 13 5 7 1017.5 1017.4 4.8
25/08:00pm 18.9 20.3 17.9 94 0.6 SSE 7 13 4 7 1017.4 1017.3 4.8
25/07:30pm 18.8 20.1 17.6 93 0.7 S 7 11 4 6 1017.5 1017.4 4.8
25/07:00pm 19.0 19.2 17.7 92 0.8 SSE 13 19 7 10 1017.6 1017.5 4.8
25/06:30pm 19.0 18.5 17.7 92 0.8 SSE 17 24 9 13 1017.3 1017.2 4.6
25/06:00pm 18.8 18.6 17.5 92 0.8 SSE 15 24 8 13 1016.8 1016.7 4.6
25/05:30pm 18.4 18.0 17.2 93 0.7 SSE 15 22 8 12 1016.8 1016.7 4.4
25/05:27pm 18.4 18.1 17.4 94 0.6 SSE 15 22 8 12 1016.7 1016.6 4.4
25/05:01pm 18.6 17.9 17.4 93 0.7 SSE 17 30 9 16 1016.4 1016.3 2.4
25/05:00pm 18.7 18.1 17.5 93 0.7 SSE 17 28 9 15 1016.4 1016.3 2.4
25/04:30pm 18.8 18.6 17.6 93 0.7 S 15 22 8 12 1016.2 1016.1 2.2
25/04:00pm 19.6 20.1 18.4 93 0.7 S 13 20 7 11 1016.2 1016.1 1.8
25/03:30pm 19.8 20.0 18.6 93 0.7 S 15 28 8 15 1015.9 1015.8 1.8
25/03:23pm 19.8 20.4 18.5 92 0.8 S 13 22 7 12 1015.9 1015.8 1.8
25/03:00pm 20.6 21.5 18.4 87 1.4 SSW 11 15 6 8 1015.8 1015.7 1.0
25/02:58pm 20.7 21.6 18.3 86 1.5 SSW 11 17 6 9 1015.8 1015.7 0.8
25/02:30pm 21.5 22.0 18.3 82 2.0 SSE 13 20 7 11 1015.8 1015.7 0.2
25/02:00pm 21.8 21.6 18.4 81 2.1 SSE 17 28 9 15 1015.6 1015.5 0.2
25/01:30pm 22.2 21.5 18.2 78 2.5 SSE 19 32 10 17 1016.0 1015.9 0.2
25/01:00pm 22.5 21.8 18.7 79 2.4 SSE 20 32 11 17 1016.2 1016.1 0.2
25/12:30pm 21.7 20.9 18.1 80 2.2 SSE 19 28 10 15 1016.6 1016.5 0.2
25/12:00pm 21.7 21.1 17.5 77 2.6 SSE 17 30 9 16 1017.1 1017.0 0.2
25/11:30am 21.9 20.8 17.7 77 2.6 SSE 20 35 11 19 1017.6 1017.5 0.2
25/11:00am 21.5 20.2 18.1 81 2.1 SSE 22 35 12 19 1018.0 1017.9 0.2
25/10:30am 22.3 22.4 19.1 82 2.0 SSE 17 28 9 15 1018.6 1018.5 0.0
25/10:00am 20.3 19.8 17.9 86 1.5 SSE 17 32 9 17 1019.0 1018.9 0.0
25/09:30am 19.7 19.3 18.0 90 1.0 SSE 17 28 9 15 1019.2 1019.1 0.0
25/09:00am 20.1 20.8 18.8 92 0.8 SSE 13 20 7 11 1019.4 1019.3 8.6
25/08:30am 19.5 19.8 18.7 95 0.5 SSE 15 24 8 13 1019.1 1019.0 8.6
25/08:00am 19.1 20.5 18.6 97 0.3 S 9 15 5 8 1019.0 1018.9 8.6
25/07:30am 18.6 19.0 18.1 97 0.3 S 13 20 7 11 1018.9 1018.8 8.4
25/07:00am 18.5 19.2 18.0 97 0.3 SSW 11 15 6 8 1018.6 1018.5 8.0
25/06:30am 18.4 19.1 17.9 97 0.3 SW 11 13 6 7 1018.5 1018.4 8.0
25/06:00am 18.4 18.7 17.9 97 0.3 SSW 13 19 7 10 1017.9 1017.8 8.0
25/05:30am 18.4 18.7 17.9 97 0.3 S 13 20 7 11 1017.7 1017.6 7.4
25/05:00am 18.1 18.3 17.6 97 0.3 SSW 13 20 7 11 1017.4 1017.3 6.6
25/04:30am 17.8 17.8 17.3 97 0.3 SSW 13 17 7 9 1017.2 1017.1 6.6
25/04:00am 17.7 18.1 17.2 97 0.3 SSW 11 17 6 9 1017.5 1017.4 6.6
25/03:30am 17.9 18.0 17.4 97 0.3 SSW 13 20 7 11 1017.7 1017.6 6.6
25/03:00am 17.7 17.7 17.2 97 0.3 SSW 13 22 7 12 1017.7 1017.6 6.6
25/02:30am 17.7 17.3 17.2 97 0.3 SSW 15 20 8 11 1017.9 1017.8 6.2
25/02:00am 17.9 18.0 17.4 97 0.3 SSW 13 17 7 9 1017.9 1017.8 6.2
25/01:30am 18.1 18.2 17.5 96 0.4 SSW 13 19 7 10 1018.0 1017.9 6.0
25/01:00am 18.3 19.7 17.7 96 0.4 SE 7 9 4 5 1018.6 1018.5 6.0
25/12:30am 18.2 18.8 17.6 96 0.4 SW 11 15 6 8 1018.8 1018.7 3.4
25/12:00am 18.1 18.2 17.5 96 0.4 SSW 13 24 7 13 1019.0 1018.9 3.4
 
Date/Time
EST
Temp
°C
App
Temp
°C
Dew
Point
°C
Rel
Hum
%
Delta-T
°C
Wind Press
QNH
hPa
Press
MSL
hPa
Rain since
9am
mm
Dir  Spd
km/h
Gust
km/h
Spd
kts
Gust
kts
24/11:30pm 18.0 18.5 17.4 96 0.4 SSW 11 15 6 8 1018.9 1018.8 3.4
24/11:00pm 17.9 18.6 17.1 95 0.5 SSW 9 13 5 7 1019.4 1019.3 3.0
24/10:30pm 17.8 17.6 16.8 94 0.6 SW 13 17 7 9 1019.6 1019.5 2.8
24/10:00pm 18.4 18.4 17.2 93 0.7 SW 13 19 7 10 1019.5 1019.4 2.8
24/09:30pm 19.1 18.3 17.2 89 1.2 SE 17 28 9 15 1019.5 1019.4 2.8
24/09:00pm 19.3 20.3 17.8 91 0.9 SSE 9 17 5 9 1019.6 1019.5 2.4
24/08:30pm 19.1 19.8 17.9 93 0.7 SSW 11 15 6 8 1019.2 1019.1 2.4
24/08:00pm 19.3 20.4 18.0 92 0.8 S 9 11 5 6 1019.3 1019.2 2.4
24/07:30pm 19.6 19.7 18.3 92 0.8 ESE 15 20 8 11 1019.4 1019.3 2.2
24/07:27pm 19.6 20.1 18.3 92 0.8 E 13 20 7 11 1019.4 1019.3 2.2
24/07:08pm 19.8 19.9 17.4 86 1.5 SE 13 24 7 13 1019.2 1019.1 2.0
24/07:00pm 20.2 20.4 16.8 81 2.1 SSE 11 17 6 9 1019.1 1019.0 1.6
24/06:30pm 20.3 19.3 16.5 79 2.3 SSE 17 24 9 13 1018.6 1018.5 1.6
24/06:00pm 20.2 19.7 17.0 82 1.9 SSE 15 24 8 13 1018.2 1018.1 1.6
24/05:30pm 19.8 19.6 17.6 87 1.3 SSE 15 24 8 13 1017.7 1017.6 1.6
24/05:00pm 19.8 19.1 17.4 86 1.5 SSE 17 24 9 13 1017.6 1017.5 1.6
24/04:30pm 20.0 20.1 18.3 90 1.1 SE 15 24 8 13 1017.4 1017.3 1.6
24/04:25pm 19.9 19.6 18.2 90 1.1 SE 17 24 9 13 1017.4 1017.3 1.6
24/04:04pm 20.1 18.4 17.1 83 1.8 SE 22 37 12 20 1017.6 1017.5 1.2
24/04:00pm 21.5 20.4 17.3 77 2.6 SE 19 37 10 20 1017.6 1017.5 0.6
24/03:30pm 22.3 20.9 17.9 76 2.7 SE 22 35 12 19 1017.3 1017.2 0.6
24/03:00pm 22.4 20.4 17.5 74 3.0 SE 24 37 13 20 1017.0 1016.9 0.6
24/02:30pm 22.3 21.5 18.1 77 2.6 SE 19 32 10 17 1016.9 1016.8 0.6
24/02:00pm 20.7 19.8 18.1 85 1.6 SSE 20 33 11 18 1017.1 1017.0 0.6
24/01:30pm 23.3 22.4 18.2 73 3.2 SSE 20 33 11 18 1016.8 1016.7 0.2
24/01:00pm 22.8 21.9 17.7 73 3.2 SSE 19 33 10 18 1017.0 1016.9 0.2
24/12:30pm 23.3 22.0 17.3 69 3.7 SE 20 32 11 17 1017.4 1017.3 0.2
24/12:00pm 23.1 21.7 18.0 73 3.2 SE 22 35 12 19 1018.0 1017.9 0.2
24/11:30am 22.9 21.5 18.0 74 3.1 SE 22 33 12 18 1018.4 1018.3 0.2
24/11:00am 22.5 20.6 17.6 74 3.0 SE 24 39 13 21 1018.8 1018.7 0.0
24/10:30am 23.2 21.7 17.7 71 3.4 SE 22 37 12 20 1019.1 1019.0 0.0
24/10:00am 22.7 22.2 18.7 78 2.5 SE 19 33 10 18 1019.1 1019.0 0.0
24/09:30am 21.8 21.2 18.4 81 2.1 SE 19 30 10 16 1019.5 1019.4 0.0
24/09:00am 20.7 21.1 18.1 85 1.6 SE 13 20 7 11 1019.2 1019.1 7.0
24/08:30am 20.3 20.0 17.3 83 1.8 SE 15 24 8 13 1019.2 1019.1 7.0
24/08:00am 20.1 19.9 17.5 85 1.6 SE 15 28 8 15 1018.9 1018.8 7.0
24/07:30am 19.6 19.0 17.6 88 1.2 SE 17 24 9 13 1018.7 1018.6 7.0
24/07:00am 19.1 18.8 17.4 90 1.0 SE 15 24 8 13 1018.5 1018.4 7.0
24/06:30am 18.9 17.7 17.4 91 0.9 SE 20 33 11 18 1018.6 1018.5 7.0
24/06:00am 19.1 19.4 17.8 92 0.8 SSE 13 22 7 12 1018.3 1018.2 7.0
24/05:30am 18.9 18.3 17.6 92 0.8 SE 17 28 9 15 1018.0 1017.9 7.0
24/05:00am 19.1 18.3 17.9 93 0.7 SE 19 35 10 19 1017.9 1017.8 7.0
24/04:30am 18.5 17.4 17.3 93 0.7 SE 19 32 10 17 1017.6 1017.5 6.8
24/04:00am 18.9 18.4 17.7 93 0.7 SE 17 30 9 16 1018.0 1017.9 6.4
24/03:30am 19.4 19.8 18.2 93 0.7 SE 13 19 7 10 1018.2 1018.1 6.2
24/03:00am 19.1 19.5 18.1 94 0.6 SE 13 20 7 11 1018.0 1017.9 6.2
24/02:30am 18.7 19.2 17.5 93 0.7 SE 11 19 6 10 1017.8 1017.7 5.4
24/02:00am 18.8 19.0 17.6 93 0.7 S 13 19 7 10 1018.0 1017.9 5.0
24/01:30am 19.0 18.1 17.7 92 0.8 SE 19 28 10 15 1018.2 1018.1 4.8
24/01:00am 18.6 17.9 17.3 92 0.8 SE 17 28 9 15 1018.6 1018.5 4.4
24/12:30am 19.1 17.8 17.2 89 1.2 SSE 20 41 11 22 1018.8 1018.7 3.4
24/12:00am 18.8 18.3 16.8 88 1.2 SSE 15 24 8 13 1019.2 1019.1 3.4
 
Date/Time
EST
Temp
°C
App
Temp
°C
Dew
Point
°C
Rel
Hum
%
Delta-T
°C
Wind Press
QNH
hPa
Press
MSL
hPa
Rain since
9am
mm
Dir  Spd
km/h
Gust
km/h
Spd
kts
Gust
kts
23/11:30pm 19.4 18.1 16.8 85 1.6 SSE 19 28 10 15 1019.2 1019.1 3.4
23/11:00pm 19.8 20.5 17.9 89 1.2 SE 11 24 6 13 1019.3 1019.2 3.4
23/10:30pm 19.5 19.4 17.8 90 1.0 SE 15 24 8 13 1019.3 1019.2 3.4
23/10:00pm 19.1 19.0 17.9 93 0.7 SSE 15 24 8 13 1019.7 1019.6 3.4
23/09:30pm 18.6 18.8 17.6 94 0.6 S 13 20 7 11 1019.8 1019.7 3.4
23/09:00pm 19.8 19.7 17.9 89 1.2 SSE 15 26 8 14 1019.6 1019.5 3.0
23/08:30pm 20.2 19.3 17.8 86 1.5 SE 19 32 10 17 1019.5 1019.4 2.8
23/08:00pm 19.8 20.3 18.3 91 0.9 SE 13 20 7 11 1019.5 1019.4 2.8
23/07:30pm 19.8 19.9 18.3 91 0.9 SE 15 26 8 14 1019.3 1019.2 2.8
23/07:00pm 19.4 19.3 17.9 91 0.9 SE 15 24 8 13 1019.0 1018.9 2.8
23/06:30pm 19.1 19.4 17.9 93 0.7 SE 13 22 7 12 1018.9 1018.8 2.8
23/06:19pm 19.3 19.8 18.3 94 0.6 SE 13 20 7 11 1018.9 1018.8 2.8
23/06:00pm 19.4 19.4 18.2 93 0.7 SE 15 32 8 17 1018.8 1018.7 2.8
23/05:58pm 19.2 19.2 18.0 93 0.7 SE 15 32 8 17 1018.8 1018.7 2.2
23/05:48pm 19.2 19.5 18.0 93 0.7 SE 13 20 7 11 1018.7 1018.6 1.0
23/05:30pm 19.3 18.9 18.0 92 0.8 SE 17 26 9 14 1018.5 1018.4 1.0
23/05:21pm 19.6 18.6 17.9 90 1.0 SE 20 30 11 16 1018.6 1018.5 0.4
23/05:00pm 20.7 19.7 17.9 84 1.7 ESE 20 30 11 16 1018.2 1018.1 0.2
23/04:30pm 21.8 21.0 17.2 75 2.8 SSE 17 26 9 14 1017.8 1017.7 0.2
23/04:00pm 22.1 20.9 17.0 73 3.1 SSE 19 30 10 16 1017.4 1017.3 0.2
23/03:30pm 22.3 21.5 17.0 72 3.2 SSE 17 24 9 13 1017.3 1017.2 0.2
23/03:00pm 22.6 22.3 17.3 72 3.3 SSE 15 24 8 13 1017.6 1017.5 0.2
23/02:30pm 22.4 22.1 17.3 73 3.1 SSE 15 28 8 15 1017.7 1017.6 0.2
23/02:00pm 22.6 21.3 16.9 70 3.5 SE 19 35 10 19 1017.5 1017.4 0.2
23/01:30pm 22.6 21.3 16.9 70 3.5 SSE 19 28 10 15 1017.4 1017.3 0.2
23/01:00pm 22.8 21.5 16.8 69 3.7 SE 19 37 10 20 1017.5 1017.4 0.2
23/12:30pm 23.9 22.4 17.6 68 3.9 SE 22 33 12 18 1017.8 1017.7 0.2
23/12:00pm 23.3 21.6 17.1 68 3.8 SE 22 33 12 18 1018.3 1018.2 0.2
23/11:30am 23.2 22.1 17.7 71 3.4 SE 20 32 11 17 1018.1 1018.0 0.2
23/11:00am 22.6 21.2 16.9 70 3.5 SSE 20 35 11 19 1018.8 1018.7 0.2
23/10:30am 22.4 21.0 17.1 72 3.3 SSE 20 35 11 19 1019.3 1019.2 0.2
23/10:00am 22.3 21.0 16.8 71 3.4 SE 19 28 10 15 1019.4 1019.3 0.0
23/09:30am 22.2 21.3 16.9 72 3.2 SE 17 28 9 15 1019.6 1019.5 0.0
23/09:00am 22.1 21.3 17.0 73 3.1 SE 17 28 9 15 1019.6 1019.5 12.0
23/08:30am 20.8 20.5 17.4 81 2.1 SSE 15 22 8 12 1019.3 1019.2 12.0
23/08:00am 18.9 19.5 17.6 92 0.8 SSW 11 17 6 9 1019.4 1019.3 11.8
23/07:30am 18.2 18.8 16.9 92 0.8 SSW 9 11 5 6 1019.2 1019.1 11.8
23/07:00am 18.3 18.2 17.0 92 0.8 SSW 13 19 7 10 1019.1 1019.0 11.8
23/06:30am 18.5 18.0 17.0 91 0.9 SSW 15 20 8 11 1018.5 1018.4 11.8
23/06:00am 18.6 18.9 16.9 90 1.0 S 11 15 6 8 1018.1 1018.0 11.8
23/05:30am 18.2 18.1 16.9 92 0.8 SSW 13 17 7 9 1017.9 1017.8 11.8
23/05:00am 18.2 17.6 16.7 91 0.9 SSW 15 20 8 11 1017.7 1017.6 11.8
23/04:30am 18.4 18.6 16.7 90 1.0 SW 11 15 6 8 1017.3 1017.2 11.8
23/04:00am 19.7 19.5 17.5 87 1.3 ESE 15 26 8 14 1016.7 1016.6 11.8
23/03:30am 18.7 19.8 17.0 90 1.0 SSE 7 17 4 9 1017.3 1017.2 11.8
23/03:00am 18.2 18.6 17.2 94 0.6 SSW 11 15 6 8 1017.2 1017.1 11.8
23/02:30am 18.3 18.3 17.3 94 0.6 SSW 13 19 7 10 1017.1 1017.0 11.8
23/02:00am 18.6 19.6 17.8 95 0.5 SSW 9 11 5 6 1017.1 1017.0 11.8
23/01:30am 18.7 19.7 17.7 94 0.6 SSE 9 15 5 8 1017.0 1016.9 11.8
23/01:00am 18.4 18.2 17.6 95 0.5 SSE 15 30 8 16 1017.6 1017.5 11.8
23/12:30am 17.9 18.3 17.3 96 0.4 SSW 11 20 6 11 1017.8 1017.7 11.8
23/12:00am 17.7 17.6 16.9 95 0.5 S 13 19 7 10 1017.7 1017.6 11.6
 
Date/Time
EST
Temp
°C
App
Temp
°C
Dew
Point
°C
Rel
Hum
%
Delta-T
°C
Wind Press
QNH
hPa
Press
MSL
hPa
Rain since
9am
mm
Dir  Spd
km/h
Gust
km/h
Spd
kts
Gust
kts
22/11:30pm 17.8 17.3 16.8 94 0.6 SSW 15 20 8 11 1017.8 1017.7 11.6

Other formats

Comma delimited format used in spreadsheet applications
http://www.bom.gov.au/fwo/IDQ60801/IDQ60801.95565.axf

JavaScript Object Notation format (JSON) in row-major order
http://www.bom.gov.au/fwo/IDQ60801/IDQ60801.95565.json

Data quality

Most of these data are generated automatically and are frequently updated. Quality checks on data are not normally performed. It is possible for incorrect values to appear. Refer to information at About Latest Weather Observations and please check the disclaimer before using these data.